Ambulong, Philippines

2:13 AM PHT on April 26, 2015 (GMT +0800)
UP Los Banos | | Change Station
CLOSE
Current Station
Personal Weather Station
Location: Los Baños, CALABARZON
Elevation: 860 ft
Nearby Weather Stations

Elev 860 ft 14.17 °N, 121.24 °E | Updated 4 minutes ago

Partly Cloudy
Partly Cloudy
78.5 °F
Feels Like 81 °F
N
1.0
Wind Variable Wind from SSW
Gusts 8.0 mph

Today
High -- | Low -- °F
--% Chance of Precip.
Yesterday
High -- | Low -- °F
Precip. -- in
5:36 AM 6:10 PM
Waxing Crescent, 48% visible
Pressure 29.86 in
Visibility 6.2 miles
Clouds Few 2500 ft
Heat Index 81 °F
Dew Point 73 °F
Humidity 83%
Rainfall 0.00 in
Snow Depth Not available.
UV 0 out of 12
Pollen Not available.
Air Quality Not available.
Flu Activity Not available.
METAR RPLL 251800Z 10006KT 060V130 9999 FEW025 27/22 Q1011 NOSIG RMK A2985

More Conditions Fewer Conditions

Pressure 29.86 in
Visibility 6.2 miles
Clouds Few 2500 ft
Heat Index 81 °F
Dew Point 73 °F
Humidity 83%
Rainfall 0.00 in
Snow Depth Not available.
UV 0 out of 12
Pollen Not available.
Air Quality Not available.
Flu Activity Not available.
METAR RPLL 251800Z 10006KT 060V130 9999 FEW025 27/22 Q1011 NOSIG RMK A2985

More Conditions Fewer Conditions

10-Day Weather Forecast

Almanac

Astronomy

Apr. 26, 2015 Rise Set
Actual Time
Civil Twilight
Nautical Twilight
Astronomical Twilight
Moon
Length of Visible Light
Length of Day
Tomorrow will be .
, % of the Moon is Illuminated

Today's Extremes

Country Highs Country Lows

Community

WunderPhotos

Upload Photos

1,816,763 photos uploaded!

WunderBlogs® & News

Nearby

Air Quality

  Air Quality AQ Index Pollutant
Not available.

Snow Depth

Station Depth Elevation

Earthquake Activity

City Distance Mag. Time & Date
Minimum magnitude displayed is 2.5.

Coastal Water Temperatures

Place Temperature

Stations

Nearby Weather Stations

Station Location Temp. Windchill Dew Point Humidity Wind Precip. Elev Updated Type